createdAt,value
2022-11-05T00:00:37.679Z,21.98
2022-11-05T00:03:24.850Z,22.03
2022-11-05T00:06:13.535Z,22.07
2022-11-05T00:09:01.302Z,22.11
2022-11-05T00:11:47.802Z,22.16
2022-11-05T00:14:34.567Z,22.20
2022-11-05T00:17:02.906Z,22.24
2022-11-05T00:19:31.255Z,22.27
2022-11-05T00:22:17.909Z,22.31
2022-11-05T00:25:04.405Z,22.38
2022-11-05T00:27:35.297Z,22.42
2022-11-05T00:30:03.614Z,22.46
2022-11-05T00:32:33.715Z,22.49
2022-11-05T00:35:02.039Z,22.50
2022-11-05T00:37:31.002Z,22.53
2022-11-05T00:39:59.347Z,22.56
2022-11-05T00:42:45.881Z,22.55
2022-11-05T00:45:14.761Z,22.58
2022-11-05T00:48:01.719Z,22.60
2022-11-05T00:50:31.833Z,22.61
2022-11-05T00:53:01.468Z,22.64
2022-11-05T00:55:46.933Z,22.67
2022-11-05T00:58:18.620Z,22.72
2022-11-05T01:00:51.904Z,22.76
2022-11-05T01:03:22.952Z,22.79
2022-11-05T01:05:54.189Z,22.85
2022-11-05T01:08:24.877Z,22.91
2022-11-05T01:10:55.994Z,22.95
2022-11-05T01:13:30.453Z,23.00
2022-11-05T01:15:59.029Z,23.03
2022-11-05T01:18:27.534Z,23.08
2022-11-05T01:20:55.827Z,23.16
2022-11-05T01:23:24.143Z,23.22
2022-11-05T01:25:52.530Z,23.27
2022-11-05T01:28:20.951Z,23.32
2022-11-05T01:30:57.100Z,23.38
2022-11-05T01:33:25.964Z,23.42
2022-11-05T01:35:54.694Z,23.47
2022-11-05T01:38:23.083Z,23.51
2022-11-05T01:40:51.496Z,23.56
2022-11-05T01:43:22.625Z,23.62
2022-11-05T01:45:59.985Z,23.70
2022-11-05T01:48:36.728Z,23.78
2022-11-05T01:51:18.421Z,23.84
2022-11-05T01:53:53.165Z,23.91
2022-11-05T01:56:31.234Z,23.97
2022-11-05T01:59:23.236Z,24.03
2022-11-05T02:01:52.673Z,24.08
2022-11-05T02:04:49.959Z,24.15
2022-11-05T02:07:19.075Z,24.20
2022-11-05T02:10:10.485Z,24.26
2022-11-05T02:12:42.716Z,24.32
2022-11-05T02:15:17.021Z,24.38
2022-11-05T02:18:23.550Z,24.42
2022-11-05T02:21:00.781Z,24.53
2022-11-05T02:23:59.341Z,24.58
2022-11-05T02:26:33.480Z,24.62
2022-11-05T02:29:07.568Z,24.69
2022-11-05T02:31:44.753Z,24.74
2022-11-05T02:35:00.502Z,24.84
2022-11-05T02:37:41.209Z,24.91
2022-11-05T02:40:46.604Z,25.00
2022-11-05T02:43:37.067Z,25.05
2022-11-05T02:46:13.417Z,25.10
2022-11-05T02:48:54.474Z,25.16
2022-11-05T02:51:32.778Z,25.22
2022-11-05T02:54:14.362Z,25.32
2022-11-05T02:56:49.402Z,25.39
2022-11-05T02:59:17.742Z,25.42
2022-11-05T03:01:48.086Z,25.44
2022-11-05T03:04:20.949Z,25.48
2022-11-05T03:07:09.340Z,25.52
2022-11-05T03:10:05.047Z,25.56
2022-11-05T03:12:58.054Z,25.64
2022-11-05T03:15:35.005Z,25.71
2022-11-05T03:18:18.339Z,25.76
2022-11-05T03:21:04.107Z,25.86
2022-11-05T03:23:59.908Z,25.96
2022-11-05T03:26:33.017Z,25.99
2022-11-05T03:29:07.609Z,26.05
2022-11-05T03:31:38.401Z,26.13
2022-11-05T03:34:11.695Z,26.20
2022-11-05T03:36:46.203Z,26.28
2022-11-05T03:39:21.294Z,26.33
2022-11-05T03:41:53.406Z,26.39
2022-11-05T03:44:27.800Z,26.46
2022-11-05T03:47:06.743Z,26.52
2022-11-05T03:49:41.447Z,26.61
2022-11-05T03:52:17.536Z,26.68
2022-11-05T03:54:46.782Z,26.74
2022-11-05T03:57:27.131Z,26.81
2022-11-05T03:59:55.455Z,26.86
2022-11-05T04:02:27.275Z,26.93
2022-11-05T04:04:56.289Z,26.99
2022-11-05T04:07:42.824Z,27.03
2022-11-05T04:10:29.427Z,27.13
2022-11-05T04:13:16.134Z,27.22
2022-11-05T04:16:02.697Z,27.26
2022-11-05T04:18:31.022Z,27.34
2022-11-05T04:21:17.519Z,27.38
2022-11-05T04:24:04.138Z,27.44
2022-11-05T04:26:32.504Z,27.52
2022-11-05T04:29:19.404Z,27.55
2022-11-05T04:31:47.772Z,27.61
2022-11-05T04:34:17.244Z,27.66
2022-11-05T04:36:46.742Z,27.70
2022-11-05T04:39:15.073Z,27.75
2022-11-05T04:41:43.878Z,27.79
2022-11-05T04:44:12.322Z,27.83
2022-11-05T04:46:40.925Z,27.90
2022-11-05T04:49:09.430Z,27.96
2022-11-05T04:51:37.753Z,28.01
2022-11-05T04:54:06.106Z,28.09
2022-11-05T04:56:34.565Z,28.18
2022-11-05T04:59:02.926Z,28.24
2022-11-05T05:01:31.377Z,28.30
2022-11-05T05:03:59.775Z,28.37
2022-11-05T05:06:28.115Z,28.37
2022-11-05T05:08:56.452Z,28.42
2022-11-05T05:11:25.016Z,28.45
2022-11-05T05:13:53.350Z,28.50
2022-11-05T05:16:27.399Z,28.55
2022-11-05T05:18:56.256Z,28.62
2022-11-05T05:21:40.069Z,28.69
2022-11-05T05:24:11.645Z,28.74
2022-11-05T05:26:42.585Z,28.77
2022-11-05T05:29:11.652Z,28.83
2022-11-05T05:31:40.972Z,28.86
2022-11-05T05:34:11.786Z,28.91
2022-11-05T05:36:40.188Z,28.93
2022-11-05T05:39:11.824Z,28.98
2022-11-05T05:41:40.262Z,29.02
2022-11-05T05:44:08.862Z,29.07
2022-11-05T05:46:37.223Z,29.12
2022-11-05T05:49:09.579Z,29.15
2022-11-05T05:51:40.999Z,29.20
2022-11-05T05:54:09.652Z,29.24
2022-11-05T05:56:38.008Z,29.30
2022-11-05T05:59:07.321Z,29.36
2022-11-05T06:01:35.796Z,29.40
2022-11-05T06:04:04.417Z,29.45
2022-11-05T06:06:32.859Z,29.51
2022-11-05T06:09:01.186Z,29.52
2022-11-05T06:11:29.618Z,29.57
2022-11-05T06:13:58.602Z,29.59
2022-11-05T06:16:26.968Z,29.62
2022-11-05T06:18:55.648Z,29.65
2022-11-05T06:21:23.966Z,29.65
2022-11-05T06:23:52.400Z,29.67
2022-11-05T06:26:21.354Z,29.70
2022-11-05T06:28:49.656Z,29.75
2022-11-05T06:31:18.906Z,29.77
2022-11-05T06:33:48.254Z,29.79
2022-11-05T06:36:19.458Z,29.78
2022-11-05T06:38:48.225Z,29.76
2022-11-05T06:41:17.040Z,29.78
2022-11-05T06:43:45.553Z,29.79
2022-11-05T06:46:13.971Z,29.80
2022-11-05T06:48:42.322Z,29.83
2022-11-05T06:51:11.240Z,29.87
2022-11-05T06:53:39.583Z,29.88
2022-11-05T06:56:08.958Z,29.90
2022-11-05T06:58:38.100Z,29.92
2022-11-05T07:01:09.994Z,29.94
2022-11-05T07:03:39.805Z,29.92
2022-11-05T07:06:09.069Z,29.94
2022-11-05T07:08:38.702Z,29.94
2022-11-05T07:11:07.239Z,29.94
2022-11-05T07:13:41.698Z,29.91
2022-11-05T07:16:10.478Z,29.88
2022-11-05T07:18:39.340Z,29.79
2022-11-05T07:21:08.930Z,29.75
2022-11-05T07:23:37.313Z,29.74
2022-11-05T07:26:06.039Z,29.72
2022-11-05T07:28:34.413Z,29.74
2022-11-05T07:31:02.837Z,29.77
2022-11-05T07:33:36.152Z,29.77
2022-11-05T07:36:05.097Z,29.77
2022-11-05T07:38:33.483Z,29.78
2022-11-05T07:41:01.830Z,29.75
2022-11-05T07:43:30.255Z,29.70
2022-11-05T07:45:58.666Z,29.67
2022-11-05T07:48:27.021Z,29.59
2022-11-05T07:50:56.123Z,29.52
2022-11-05T07:53:24.519Z,29.43
2022-11-05T07:55:53.580Z,29.37
2022-11-05T07:58:26.381Z,29.33
2022-11-05T08:00:54.921Z,29.32
2022-11-05T08:03:23.539Z,29.29
2022-11-05T08:05:51.864Z,29.29
2022-11-05T08:08:21.431Z,29.30
2022-11-05T08:10:49.757Z,29.28
2022-11-05T08:13:18.833Z,29.28
2022-11-05T08:15:47.243Z,29.26
2022-11-05T08:18:17.820Z,29.24
2022-11-05T08:20:47.852Z,29.22
2022-11-05T08:23:16.754Z,29.23
2022-11-05T08:25:45.066Z,29.21
2022-11-05T08:28:14.664Z,29.20
2022-11-05T08:30:43.454Z,29.20
2022-11-05T08:33:14.269Z,29.17
2022-11-05T08:35:43.327Z,29.15
2022-11-05T08:38:16.900Z,29.15
2022-11-05T08:40:47.124Z,29.14
2022-11-05T08:43:15.826Z,29.14
2022-11-05T08:45:44.311Z,29.10
2022-11-05T08:48:18.163Z,29.09
2022-11-05T08:50:48.350Z,29.05
2022-11-05T08:53:22.783Z,29.03
2022-11-05T08:55:52.538Z,28.99
2022-11-05T08:58:21.602Z,28.97
2022-11-05T09:00:51.012Z,28.96
2022-11-05T09:03:19.832Z,28.91
2022-11-05T09:05:48.335Z,28.87
2022-11-05T09:08:19.783Z,28.82
2022-11-05T09:10:49.031Z,28.79
2022-11-05T09:13:20.017Z,28.75
2022-11-05T09:15:50.722Z,28.69
2022-11-05T09:18:20.359Z,28.64
2022-11-05T09:20:49.274Z,28.60
2022-11-05T09:23:17.889Z,28.54
2022-11-05T09:25:47.283Z,28.48
2022-11-05T09:28:19.175Z,28.40
2022-11-05T09:30:50.446Z,28.31
2022-11-05T09:33:22.272Z,28.22
2022-11-05T09:35:50.663Z,28.13
2022-11-05T09:38:19.269Z,28.05
2022-11-05T09:41:16.111Z,27.96
2022-11-05T09:43:48.645Z,27.90
2022-11-05T09:46:20.677Z,27.82
2022-11-05T09:48:53.509Z,27.77
2022-11-05T09:51:24.301Z,27.71
2022-11-05T09:53:54.725Z,27.64
2022-11-05T09:56:25.282Z,27.57
2022-11-05T09:59:07.607Z,27.50
2022-11-05T10:01:38.990Z,27.44
2022-11-05T10:04:16.353Z,27.39
2022-11-05T10:06:52.567Z,27.32
2022-11-05T10:09:32.402Z,27.28
2022-11-05T10:12:08.843Z,27.25
2022-11-05T10:14:52.265Z,27.20
2022-11-05T10:17:27.681Z,27.15
2022-11-05T10:20:16.749Z,27.08
2022-11-05T10:22:49.298Z,27.02
2022-11-05T10:25:21.200Z,26.96
2022-11-05T10:27:55.351Z,26.88
2022-11-05T10:30:24.542Z,26.82
2022-11-05T10:33:00.674Z,26.74
2022-11-05T10:35:32.517Z,26.66
2022-11-05T10:38:00.882Z,26.58
2022-11-05T10:40:56.668Z,26.51
2022-11-05T10:44:08.590Z,26.42
2022-11-05T10:46:39.515Z,26.34
2022-11-05T10:49:32.917Z,26.27
2022-11-05T10:52:27.279Z,26.17
2022-11-05T10:55:00.907Z,26.08
2022-11-05T10:57:39.662Z,26.01
2022-11-05T11:00:17.470Z,25.93
2022-11-05T11:02:48.231Z,25.87
2022-11-05T11:05:28.477Z,25.80
2022-11-05T11:08:13.003Z,25.72
2022-11-05T11:11:03.790Z,25.66
2022-11-05T11:13:59.519Z,25.58
2022-11-05T11:16:31.799Z,25.53
2022-11-05T11:19:02.191Z,25.46
2022-11-05T11:21:32.856Z,25.40
2022-11-05T11:24:10.373Z,25.35
2022-11-05T11:26:41.507Z,25.28
2022-11-05T11:29:09.861Z,25.22
2022-11-05T11:31:40.820Z,25.16
2022-11-05T11:34:13.945Z,25.11
2022-11-05T11:36:51.834Z,25.05
2022-11-05T11:39:31.464Z,24.97
2022-11-05T11:42:04.640Z,24.91
2022-11-05T11:44:40.895Z,24.86
2022-11-05T11:47:16.359Z,24.81
2022-11-05T11:49:58.067Z,24.75
2022-11-05T11:52:33.943Z,24.71
2022-11-05T11:55:14.599Z,24.67
2022-11-05T11:57:55.568Z,24.61
2022-11-05T12:00:27.896Z,24.56
2022-11-05T12:03:26.700Z,24.52
2022-11-05T12:06:06.993Z,24.48
2022-11-05T12:09:06.903Z,24.44
2022-11-05T12:11:41.433Z,24.42
2022-11-05T12:14:25.141Z,24.40
2022-11-05T12:17:02.520Z,24.39
2022-11-05T12:19:47.136Z,24.35
2022-11-05T12:22:47.575Z,24.34
2022-11-05T12:25:20.508Z,24.31
2022-11-05T12:28:11.497Z,24.29
2022-11-05T12:30:57.671Z,24.26
2022-11-05T12:33:36.237Z,24.22
2022-11-05T12:36:34.470Z,24.19
2022-11-05T12:39:41.515Z,24.14
2022-11-05T12:42:40.432Z,24.10
2022-11-05T12:45:40.219Z,24.06
2022-11-05T12:48:30.268Z,24.02
2022-11-05T12:51:05.422Z,24.00
2022-11-05T12:53:51.998Z,23.98
2022-11-05T12:56:41.286Z,23.95
2022-11-05T12:59:20.520Z,23.91
2022-11-05T13:01:56.833Z,23.90
2022-11-05T13:04:43.004Z,23.87
2022-11-05T13:07:15.181Z,23.87
2022-11-05T13:09:52.237Z,23.84
2022-11-05T13:12:25.754Z,23.84
2022-11-05T13:15:02.230Z,23.81
2022-11-05T13:17:42.238Z,23.78
2022-11-05T13:20:25.099Z,23.73
2022-11-05T13:23:08.093Z,23.69
2022-11-05T13:25:42.861Z,23.64
2022-11-05T13:28:23.439Z,23.61
2022-11-05T13:30:59.197Z,23.60
2022-11-05T13:33:39.016Z,23.58
2022-11-05T13:36:28.622Z,23.57
2022-11-05T13:39:16.480Z,23.55
2022-11-05T13:42:24.667Z,23.53
2022-11-05T13:45:21.917Z,23.52
2022-11-05T13:48:14.448Z,23.49
2022-11-05T13:50:57.693Z,23.48
2022-11-05T13:54:05.118Z,23.44
2022-11-05T13:56:48.825Z,23.40
2022-11-05T13:59:54.089Z,23.37
2022-11-05T14:02:30.277Z,23.34
2022-11-05T14:05:02.095Z,23.33
2022-11-05T14:07:34.719Z,23.30
2022-11-05T14:10:16.771Z,23.27
2022-11-05T14:12:51.440Z,23.23
2022-11-05T14:15:24.712Z,23.19
2022-11-05T14:18:27.849Z,23.14
2022-11-05T14:21:02.453Z,23.11
2022-11-05T14:23:41.708Z,23.07
2022-11-05T14:26:19.640Z,23.06
2022-11-05T14:29:12.327Z,23.03
2022-11-05T14:32:09.516Z,23.00
2022-11-05T14:34:42.771Z,22.96
2022-11-05T14:37:19.089Z,22.94
2022-11-05T14:39:47.547Z,22.90
2022-11-05T14:42:24.691Z,22.89
2022-11-05T14:45:18.778Z,22.86
2022-11-05T14:47:59.345Z,22.84
2022-11-05T14:50:37.119Z,22.80
2022-11-05T14:53:14.041Z,22.79
2022-11-05T14:55:44.864Z,22.76
2022-11-05T14:58:30.109Z,22.76
2022-11-05T15:01:00.543Z,22.76
2022-11-05T15:03:45.855Z,22.76
2022-11-05T15:06:26.804Z,22.77
2022-11-05T15:09:14.726Z,22.78
2022-11-05T15:12:10.148Z,22.80
2022-11-05T15:14:50.399Z,22.80
2022-11-05T15:17:45.949Z,22.80
2022-11-05T15:20:21.338Z,22.80
2022-11-05T15:22:53.770Z,22.79
2022-11-05T15:25:34.775Z,22.78
2022-11-05T15:28:27.687Z,22.74
2022-11-05T15:31:20.678Z,22.73
2022-11-05T15:33:49.533Z,22.71
2022-11-05T15:36:32.831Z,22.70
2022-11-05T15:39:28.863Z,22.68
2022-11-05T15:41:49.910Z,22.67
2022-11-05T15:44:29.125Z,22.64
2022-11-05T15:47:22.211Z,22.61
2022-11-05T15:49:59.588Z,22.58
2022-11-05T15:52:43.083Z,22.56
2022-11-05T15:55:13.997Z,22.55
2022-11-05T15:57:50.942Z,22.54
2022-11-05T16:00:24.097Z,22.53
2022-11-05T16:03:16.434Z,22.51
2022-11-05T16:05:48.837Z,22.51
2022-11-05T16:08:25.101Z,22.49
2022-11-05T16:10:59.864Z,22.48
2022-11-05T16:13:34.365Z,22.46
2022-11-05T16:16:22.575Z,22.47
2022-11-05T16:18:50.912Z,22.46
2022-11-05T16:21:23.630Z,22.46
2022-11-05T16:23:59.051Z,22.45
2022-11-05T16:27:00.682Z,22.44
2022-11-05T16:29:18.551Z,22.42
2022-11-05T16:31:55.317Z,22.42
2022-11-05T16:34:29.199Z,22.41
2022-11-05T16:36:59.885Z,22.39
2022-11-05T16:39:28.673Z,22.37
2022-11-05T16:41:57.055Z,22.36
2022-11-05T16:44:25.502Z,22.34
2022-11-05T16:46:54.194Z,22.32
2022-11-05T16:49:22.546Z,22.32
2022-11-05T16:51:50.916Z,22.32
2022-11-05T16:54:19.232Z,22.32
2022-11-05T16:56:48.386Z,22.33
2022-11-05T16:59:16.819Z,22.34
2022-11-05T17:01:45.407Z,22.34
2022-11-05T17:04:14.885Z,22.34
2022-11-05T17:06:44.689Z,22.32
2022-11-05T17:09:13.004Z,22.30
2022-11-05T17:11:41.529Z,22.29
2022-11-05T17:14:15.288Z,22.29
2022-11-05T17:16:43.583Z,22.26
2022-11-05T17:19:16.686Z,22.27
2022-11-05T17:21:45.497Z,22.25
2022-11-05T17:24:14.012Z,22.23
2022-11-05T17:26:42.338Z,22.21
2022-11-05T17:29:10.707Z,22.18
2022-11-05T17:31:41.863Z,22.16
2022-11-05T17:34:11.863Z,22.15
2022-11-05T17:36:40.281Z,22.14
2022-11-05T17:39:08.679Z,22.11
2022-11-05T17:41:36.987Z,22.08
2022-11-05T17:44:05.331Z,22.05
2022-11-05T17:46:33.706Z,22.02
2022-11-05T17:49:02.076Z,22.00
2022-11-05T17:51:30.415Z,21.98
2022-11-05T17:53:58.795Z,21.96
2022-11-05T17:56:33.937Z,21.94
2022-11-05T17:59:04.817Z,21.92
2022-11-05T18:01:36.706Z,21.89
2022-11-05T18:04:08.982Z,21.87
2022-11-05T18:06:40.461Z,21.86
2022-11-05T18:09:10.459Z,21.82
2022-11-05T18:11:39.103Z,21.80
2022-11-05T18:14:08.159Z,21.80
2022-11-05T18:16:37.253Z,21.78
2022-11-05T18:19:05.868Z,21.76
2022-11-05T18:21:34.239Z,21.74
2022-11-05T18:24:07.068Z,21.71
2022-11-05T18:26:36.035Z,21.70
2022-11-05T18:29:06.894Z,21.67
2022-11-05T18:31:35.282Z,21.65
2022-11-05T18:34:03.790Z,21.62
2022-11-05T18:36:33.989Z,21.60
2022-11-05T18:39:05.109Z,21.58
2022-11-05T18:41:34.313Z,21.56
2022-11-05T18:44:03.919Z,21.55
2022-11-05T18:46:57.020Z,21.53
2022-11-05T18:49:22.600Z,21.51
2022-11-05T18:51:50.949Z,21.49
2022-11-05T18:54:19.350Z,21.46
2022-11-05T18:56:47.775Z,21.45
2022-11-05T18:59:36.924Z,21.44
2022-11-05T19:02:07.951Z,21.44
2022-11-05T19:04:37.879Z,21.41
2022-11-05T19:07:07.334Z,21.39
2022-11-05T19:09:36.924Z,21.37
2022-11-05T19:12:06.197Z,21.35
2022-11-05T19:14:35.253Z,21.32
2022-11-05T19:17:04.234Z,21.32
2022-11-05T19:19:32.588Z,21.31
2022-11-05T19:22:00.954Z,21.31
2022-11-05T19:24:29.335Z,21.32
2022-11-05T19:26:57.812Z,21.31
2022-11-05T19:29:26.118Z,21.32
2022-11-05T19:31:54.477Z,21.31
2022-11-05T19:34:22.805Z,21.30
2022-11-05T19:36:51.149Z,21.29
2022-11-05T19:39:19.528Z,21.28
2022-11-05T19:41:49.531Z,21.24
2022-11-05T19:44:17.868Z,21.25
2022-11-05T19:46:46.816Z,21.22
2022-11-05T19:49:15.137Z,21.20
2022-11-05T19:51:43.522Z,21.17
2022-11-05T19:54:12.176Z,21.16
2022-11-05T19:56:40.528Z,21.12
2022-11-05T19:59:08.994Z,21.11
2022-11-05T20:01:37.558Z,21.08
2022-11-05T20:04:06.712Z,21.09
2022-11-05T20:06:39.661Z,21.08
2022-11-05T20:09:26.529Z,21.07
2022-11-05T20:11:57.142Z,21.06
2022-11-05T20:14:26.981Z,21.07
2022-11-05T20:16:55.921Z,21.06
2022-11-05T20:19:24.959Z,21.04
2022-11-05T20:21:53.313Z,21.03
2022-11-05T20:24:25.300Z,21.01
2022-11-05T20:26:59.224Z,21.01
2022-11-05T20:29:34.788Z,21.01
2022-11-05T20:32:04.889Z,20.99
2022-11-05T20:34:35.193Z,21.01
2022-11-05T20:37:03.618Z,20.98
2022-11-05T20:39:32.015Z,20.98
2022-11-05T20:42:01.534Z,20.97
2022-11-05T20:44:29.975Z,20.96
2022-11-05T20:46:58.363Z,20.96
2022-11-05T20:49:26.750Z,20.95
2022-11-05T20:51:55.511Z,20.95
2022-11-05T20:54:24.070Z,20.95
2022-11-05T20:56:52.857Z,20.94
2022-11-05T20:59:21.186Z,20.94
2022-11-05T21:01:51.297Z,20.94
2022-11-05T21:04:19.682Z,20.93
2022-11-05T21:06:48.041Z,20.92
2022-11-05T21:09:16.349Z,20.90
2022-11-05T21:12:03.034Z,20.87
2022-11-05T21:14:31.355Z,20.86
2022-11-05T21:16:59.669Z,20.84
2022-11-05T21:19:28.034Z,20.83
2022-11-05T21:21:56.587Z,20.82
2022-11-05T21:24:25.184Z,20.81
2022-11-05T21:26:54.516Z,20.80
2022-11-05T21:29:23.005Z,20.78
2022-11-05T21:31:51.352Z,20.77
2022-11-05T21:34:20.166Z,20.77
2022-11-05T21:36:48.493Z,20.77
2022-11-05T21:39:16.884Z,20.78
2022-11-05T21:41:45.305Z,20.79
2022-11-05T21:44:13.624Z,20.80
2022-11-05T21:46:42.113Z,20.80
2022-11-05T21:49:10.461Z,20.81
2022-11-05T21:51:57.004Z,20.82
2022-11-05T21:54:43.961Z,20.83
2022-11-05T21:57:35.302Z,20.84
2022-11-05T22:00:12.851Z,20.82
2022-11-05T22:02:41.280Z,20.81
2022-11-05T22:05:09.989Z,20.81
2022-11-05T22:07:40.083Z,20.78
2022-11-05T22:10:15.888Z,20.77
2022-11-05T22:12:45.695Z,20.75
2022-11-05T22:15:15.151Z,20.73
2022-11-05T22:17:46.896Z,20.72
2022-11-05T22:20:16.246Z,20.72
2022-11-05T22:22:44.978Z,20.70
2022-11-05T22:25:14.404Z,20.69
2022-11-05T22:27:44.595Z,20.69
2022-11-05T22:30:14.026Z,20.67
2022-11-05T22:32:42.452Z,20.66
2022-11-05T22:35:11.651Z,20.66
2022-11-05T22:37:40.109Z,20.65
2022-11-05T22:40:08.895Z,20.66
2022-11-05T22:42:37.296Z,20.64
2022-11-05T22:45:06.113Z,20.63
2022-11-05T22:47:34.547Z,20.63
2022-11-05T22:50:03.832Z,20.63
2022-11-05T22:52:33.641Z,20.62
2022-11-05T22:55:04.746Z,20.59
2022-11-05T22:57:33.329Z,20.59
2022-11-05T23:00:01.816Z,20.56
2022-11-05T23:02:30.312Z,20.55
2022-11-05T23:04:58.760Z,20.54
2022-11-05T23:07:45.258Z,20.52
2022-11-05T23:10:31.832Z,20.51
2022-11-05T23:13:00.144Z,20.50
2022-11-05T23:15:46.709Z,20.48
2022-11-05T23:18:33.695Z,20.47
2022-11-05T23:21:23.000Z,20.47
2022-11-05T23:24:07.319Z,20.46
2022-11-05T23:26:52.868Z,20.46
2022-11-05T23:29:26.959Z,20.45
2022-11-05T23:32:13.515Z,20.46
2022-11-05T23:34:41.928Z,20.47
2022-11-05T23:37:28.946Z,20.49
2022-11-05T23:39:57.226Z,20.50
2022-11-05T23:42:43.953Z,20.52
2022-11-05T23:45:30.947Z,20.54
2022-11-05T23:48:17.470Z,20.57
2022-11-05T23:51:03.615Z,20.61
2022-11-05T23:53:34.509Z,20.63
2022-11-05T23:56:14.747Z,20.67
2022-11-05T23:58:43.780Z,20.70
